Terminal Aerodrome Forecast
Issued by NWS Sioux Falls, SD

Home | Current Version | Previous Version | Graphics & Text | Print | Product List | Glossary Off
Versions: 1 2 3 4 5 6 7 8 9 10 11 12 13 14

000
FTUS43 KFSD 261720
TAFHON
TAF
KHON 261720Z 2618/2718 VRB03KT P6SM OVC010
     FM262000 36004KT P6SM OVC020
     FM262300 36006KT P6SM OVC040
     FM271200 VRB03KT P6SM BKN040
     FM271400 VRB03KT P6SM BKN025
     FM271500 VRB03KT P6SM SCT025=

USA.gov is the U.S. government's official web portal to all federal, state and local government web resources and services.